createdAt,value
2017-07-08T00:01:38.970Z,22.17
2017-07-08T00:04:05.494Z,21.50
2017-07-08T00:06:31.966Z,22.93
2017-07-08T00:08:58.459Z,23.97
2017-07-08T00:11:25.737Z,25.50
2017-07-08T00:13:52.155Z,23.30
2017-07-08T00:16:18.675Z,24.53
2017-07-08T00:18:45.881Z,25.23
2017-07-08T00:21:12.458Z,26.10
2017-07-08T00:23:38.922Z,24.63
2017-07-08T00:26:05.402Z,24.87
2017-07-08T00:28:31.936Z,23.53
2017-07-08T00:30:58.450Z,26.13
2017-07-08T00:33:25.282Z,27.03
2017-07-08T00:35:52.551Z,26.50
2017-07-08T00:38:19.044Z,24.50
2017-07-08T00:40:45.523Z,24.23
2017-07-08T00:43:12.006Z,23.30
2017-07-08T00:45:38.503Z,25.37
2017-07-08T00:48:04.953Z,23.40
2017-07-08T00:50:31.463Z,24.47
2017-07-08T00:52:57.982Z,27.60
2017-07-08T00:55:24.462Z,27.13
2017-07-08T00:57:50.943Z,25.03
2017-07-08T01:00:17.409Z,26.10
2017-07-08T01:02:44.653Z,27.20
2017-07-08T01:05:11.221Z,26.33
2017-07-08T01:07:37.710Z,27.37
2017-07-08T01:10:04.239Z,28.70
2017-07-08T01:12:30.721Z,26.90
2017-07-08T01:14:57.239Z,26.80
2017-07-08T01:17:23.717Z,28.23
2017-07-08T01:19:50.203Z,28.20
2017-07-08T01:22:16.703Z,28.73
2017-07-08T01:24:43.279Z,26.87
2017-07-08T01:27:09.794Z,26.30
2017-07-08T01:29:36.269Z,27.90
2017-07-08T01:32:02.811Z,31.63
2017-07-08T01:34:29.318Z,29.53
2017-07-08T01:36:55.843Z,29.37
2017-07-08T01:39:23.130Z,28.73
2017-07-08T01:41:49.669Z,27.37
2017-07-08T01:44:16.199Z,31.10
2017-07-08T01:46:42.720Z,29.80
2017-07-08T01:49:09.273Z,30.13
2017-07-08T01:51:35.805Z,29.40
2017-07-08T01:54:02.347Z,30.10
2017-07-08T01:56:28.916Z,31.27
2017-07-08T01:58:56.139Z,28.90
2017-07-08T02:01:22.635Z,31.27
2017-07-08T02:03:49.151Z,32.23
2017-07-08T02:06:15.729Z,31.97
2017-07-08T02:08:42.190Z,31.77
2017-07-08T02:11:08.723Z,30.40
2017-07-08T02:13:35.199Z,30.43
2017-07-08T02:16:01.696Z,31.07
2017-07-08T02:18:28.171Z,33.47
2017-07-08T02:20:54.690Z,31.00
2017-07-08T02:23:21.196Z,33.07
2017-07-08T02:25:48.438Z,30.70
2017-07-08T02:28:14.947Z,32.30
2017-07-08T02:30:41.433Z,30.83
2017-07-08T02:33:08.650Z,29.93
2017-07-08T02:35:35.191Z,32.70
2017-07-08T02:38:01.706Z,31.60
2017-07-08T02:40:28.174Z,32.37
2017-07-08T02:42:54.652Z,34.37
2017-07-08T02:45:21.142Z,32.87
2017-07-08T02:47:47.625Z,33.83
2017-07-08T02:50:14.111Z,35.63
2017-07-08T02:52:40.621Z,33.70
2017-07-08T02:55:07.151Z,33.17
2017-07-08T02:57:33.629Z,36.90
2017-07-08T03:00:00.153Z,34.43
2017-07-08T03:02:26.699Z,40.03
2017-07-08T03:04:53.191Z,43.03
2017-07-08T03:07:19.715Z,41.70
2017-07-08T03:09:46.203Z,44.90
2017-07-08T03:12:12.725Z,43.10
2017-07-08T03:14:39.237Z,45.70
2017-07-08T03:17:05.760Z,43.07
2017-07-08T03:19:32.302Z,40.57
2017-07-08T03:21:58.816Z,43.50
2017-07-08T03:24:25.374Z,44.47
2017-07-08T03:26:51.926Z,42.20
2017-07-08T03:29:18.411Z,43.03
2017-07-08T03:31:44.911Z,45.80
2017-07-08T03:34:11.399Z,45.77
2017-07-08T03:36:37.879Z,42.67
2017-07-08T03:39:04.374Z,43.03
2017-07-08T03:41:31.639Z,46.37
2017-07-08T03:43:58.146Z,43.27
2017-07-08T03:46:24.650Z,45.03
2017-07-08T03:48:51.162Z,45.73
2017-07-08T03:51:17.674Z,45.67
2017-07-08T03:53:44.209Z,43.83
2017-07-08T03:56:10.712Z,51.13
2017-07-08T03:58:37.218Z,43.40
2017-07-08T04:01:03.712Z,42.87
2017-07-08T04:03:30.954Z,44.20
2017-07-08T04:05:58.185Z,45.90
2017-07-08T04:08:25.446Z,42.80
2017-07-08T04:10:51.940Z,45.90
2017-07-08T04:13:18.434Z,44.70
2017-07-08T04:15:44.930Z,42.63
2017-07-08T04:18:11.454Z,42.67
2017-07-08T04:20:37.942Z,46.00
2017-07-08T04:23:04.456Z,45.40
2017-07-08T04:25:31.690Z,42.10
2017-07-08T04:27:58.194Z,42.33
2017-07-08T04:30:24.677Z,44.97
2017-07-08T04:32:51.209Z,43.77
2017-07-08T04:35:17.686Z,43.43
2017-07-08T04:37:44.221Z,42.43
2017-07-08T04:40:10.715Z,41.00
2017-07-08T04:42:37.938Z,40.47
2017-07-08T04:45:04.432Z,42.27
2017-07-08T04:47:30.949Z,45.83
2017-07-08T04:49:57.419Z,53.40
2017-07-08T04:52:23.935Z,50.07
2017-07-08T04:54:50.507Z,47.57
2017-07-08T04:57:17.778Z,45.33
2017-07-08T04:59:44.285Z,44.20
2017-07-08T05:02:10.778Z,42.00
2017-07-08T05:04:37.305Z,40.80
2017-07-08T05:07:03.885Z,40.97
2017-07-08T05:09:30.421Z,41.83
2017-07-08T05:11:56.967Z,39.73
2017-07-08T05:14:23.464Z,41.97
2017-07-08T05:16:50.018Z,39.90
2017-07-08T05:19:16.563Z,39.83
2017-07-08T05:21:43.041Z,41.23
2017-07-08T05:24:09.514Z,40.67
2017-07-08T05:26:35.980Z,38.40
2017-07-08T05:29:02.462Z,39.33
2017-07-08T05:31:28.974Z,38.63
2017-07-08T05:33:55.487Z,37.80
2017-07-08T05:36:22.704Z,36.10
2017-07-08T05:38:49.207Z,37.23
2017-07-08T05:41:15.713Z,36.30
2017-07-08T05:43:42.269Z,36.23
2017-07-08T05:46:08.749Z,37.83
2017-07-08T05:48:35.243Z,38.00
2017-07-08T05:51:01.746Z,36.40
2017-07-08T05:53:28.258Z,36.20
2017-07-08T05:55:55.493Z,36.20
2017-07-08T05:58:22.093Z,34.97
2017-07-08T06:00:48.603Z,38.80
2017-07-08T06:03:15.167Z,37.50
2017-07-08T06:05:41.646Z,39.60
2017-07-08T06:08:08.201Z,39.13
2017-07-08T06:10:34.661Z,35.37
2017-07-08T06:13:01.146Z,32.70
2017-07-08T06:15:27.643Z,34.73
2017-07-08T06:17:54.124Z,38.23
2017-07-08T06:20:20.680Z,35.40
2017-07-08T06:22:47.186Z,35.13
2017-07-08T06:25:14.438Z,35.07
2017-07-08T06:27:40.974Z,34.77
2017-07-08T06:30:07.519Z,34.50
2017-07-08T06:32:34.168Z,38.93
2017-07-08T06:35:00.686Z,35.27
2017-07-08T06:37:27.146Z,31.07
2017-07-08T06:39:53.666Z,31.47
2017-07-08T06:42:20.171Z,30.97
2017-07-08T06:44:46.687Z,28.87
2017-07-08T06:47:13.172Z,30.03
2017-07-08T06:49:39.678Z,30.40
2017-07-08T06:52:06.148Z,25.67
2017-07-08T06:54:32.746Z,26.43
2017-07-08T06:57:00.921Z,27.60
2017-07-08T06:59:27.470Z,29.93
2017-07-08T07:01:53.939Z,26.10
2017-07-08T07:04:20.447Z,29.33
2017-07-08T07:06:47.034Z,30.70
2017-07-08T07:09:13.576Z,28.70
2017-07-08T07:11:40.818Z,26.73
2017-07-08T07:14:08.126Z,29.70
2017-07-08T07:16:34.718Z,28.33
2017-07-08T07:19:01.219Z,29.07
2017-07-08T07:21:27.724Z,29.73
2017-07-08T07:23:54.167Z,26.43
2017-07-08T07:26:20.698Z,26.10
2017-07-08T07:28:47.203Z,27.40
2017-07-08T07:31:13.838Z,30.93
2017-07-08T07:33:40.300Z,30.90
2017-07-08T07:36:06.799Z,30.70
2017-07-08T07:38:33.298Z,29.60
2017-07-08T07:40:59.858Z,29.63
2017-07-08T07:43:26.384Z,28.53
2017-07-08T07:45:52.901Z,30.33
2017-07-08T07:48:19.383Z,32.13
2017-07-08T07:50:45.919Z,30.13
2017-07-08T07:53:12.365Z,27.83
2017-07-08T07:55:38.855Z,29.03
2017-07-08T07:58:06.077Z,26.47
2017-07-08T08:00:32.592Z,26.33
2017-07-08T08:02:59.126Z,26.20
2017-07-08T08:05:27.216Z,25.90
2017-07-08T08:07:53.613Z,22.20
2017-07-08T08:10:20.088Z,19.90
2017-07-08T08:12:47.375Z,21.13
2017-07-08T08:15:13.845Z,21.93
2017-07-08T08:17:40.412Z,23.23
2017-07-08T08:20:06.913Z,25.03
2017-07-08T08:22:33.402Z,22.23
2017-07-08T08:24:59.881Z,22.20
2017-07-08T08:27:26.374Z,17.00
2017-07-08T08:29:52.851Z,15.33
2017-07-08T08:32:19.450Z,18.60
2017-07-08T08:34:45.923Z,20.20
2017-07-08T08:37:12.421Z,21.27
2017-07-08T08:39:38.947Z,19.00
2017-07-08T08:42:05.471Z,21.27
2017-07-08T08:44:31.974Z,21.73
2017-07-08T08:46:58.499Z,23.00
2017-07-08T08:49:24.957Z,17.57
2017-07-08T08:51:52.540Z,18.67
2017-07-08T08:54:18.980Z,19.03
2017-07-08T08:56:45.560Z,18.57
2017-07-08T08:59:12.787Z,17.27
2017-07-08T09:01:39.341Z,18.97
2017-07-08T09:04:05.877Z,18.97
2017-07-08T09:06:32.389Z,19.60
2017-07-08T09:08:58.909Z,20.10
2017-07-08T09:11:25.454Z,18.37
2017-07-08T09:16:29.121Z,20.10
2017-07-08T09:18:56.559Z,17.57
2017-07-08T09:21:22.857Z,19.53
2017-07-08T09:23:49.135Z,17.83
2017-07-08T09:26:16.158Z,17.50
2017-07-08T09:28:42.430Z,18.27
2017-07-08T09:31:08.731Z,15.37
2017-07-08T09:33:35.234Z,14.33
2017-07-08T09:36:01.760Z,16.27
2017-07-08T09:38:28.298Z,15.20
2017-07-08T09:40:54.828Z,14.30
2017-07-08T09:43:21.414Z,18.80
2017-07-08T09:45:48.047Z,17.50
2017-07-08T09:48:15.302Z,15.70
2017-07-08T09:50:41.812Z,17.60
2017-07-08T09:53:08.362Z,13.97
2017-07-08T09:55:35.626Z,13.40
2017-07-08T09:58:02.127Z,13.00
2017-07-08T10:00:28.636Z,12.83
2017-07-08T10:02:55.196Z,12.50
2017-07-08T10:05:21.707Z,10.13
2017-07-08T10:07:48.256Z,11.10
2017-07-08T10:10:14.776Z,10.23
2017-07-08T10:12:41.375Z,11.60
2017-07-08T10:15:07.950Z,12.00
2017-07-08T10:17:34.475Z,11.10
2017-07-08T10:20:01.045Z,9.47
2017-07-08T10:22:28.309Z,11.23
2017-07-08T10:24:55.524Z,13.43
2017-07-08T10:27:22.043Z,12.87
2017-07-08T10:29:48.536Z,12.33
2017-07-08T10:32:15.773Z,12.27
2017-07-08T10:34:42.298Z,12.67
2017-07-08T10:37:09.527Z,12.30
2017-07-08T10:39:36.099Z,10.90
2017-07-08T10:42:03.339Z,11.87
2017-07-08T10:44:30.417Z,10.60
2017-07-08T10:46:56.711Z,11.73
2017-07-08T10:49:22.986Z,7.63
2017-07-08T10:51:49.280Z,8.83
2017-07-08T10:54:16.325Z,8.93
2017-07-08T10:56:42.816Z,9.90
2017-07-08T10:59:09.343Z,9.27
2017-07-08T11:01:38.730Z,10.37
2017-07-08T11:04:05.299Z,10.07
2017-07-08T11:06:31.811Z,9.93
2017-07-08T11:08:58.325Z,10.00
2017-07-08T11:11:24.827Z,9.63
2017-07-08T11:13:52.103Z,8.07
2017-07-08T11:16:18.714Z,8.93
2017-07-08T11:18:45.966Z,8.37
2017-07-08T11:21:12.478Z,8.47
2017-07-08T11:23:39.003Z,9.27
2017-07-08T11:26:05.536Z,10.40
2017-07-08T11:28:32.028Z,9.30
2017-07-08T11:30:58.534Z,9.23
2017-07-08T11:33:25.088Z,9.67
2017-07-08T11:35:51.578Z,11.43
2017-07-08T11:38:18.859Z,10.73
2017-07-08T11:40:45.398Z,10.10
2017-07-08T11:43:11.935Z,9.37
2017-07-08T11:45:38.472Z,9.63
2017-07-08T11:48:04.973Z,9.60
2017-07-08T11:50:32.226Z,7.90
2017-07-08T11:52:58.667Z,8.40
2017-07-08T11:55:25.189Z,8.07
2017-07-08T11:57:51.689Z,8.23
2017-07-08T12:00:18.228Z,10.00
2017-07-08T12:02:45.521Z,8.50
2017-07-08T12:05:12.066Z,9.60
2017-07-08T12:07:38.557Z,8.17
2017-07-08T12:10:05.087Z,8.40
2017-07-08T12:12:31.598Z,9.43
2017-07-08T12:14:58.123Z,7.43
2017-07-08T12:17:24.559Z,8.40
2017-07-08T12:19:51.092Z,8.00
2017-07-08T12:22:17.605Z,8.57
2017-07-08T12:24:44.105Z,7.70
2017-07-08T12:27:10.615Z,7.03
2017-07-08T12:29:37.141Z,7.90
2017-07-08T12:32:03.674Z,7.63
2017-07-08T12:34:30.121Z,8.23
2017-07-08T12:36:56.552Z,7.43
2017-07-08T12:39:23.138Z,8.60
2017-07-08T12:41:49.626Z,8.20
2017-07-08T12:44:16.142Z,7.63
2017-07-08T12:46:42.630Z,8.10
2017-07-08T12:49:09.171Z,6.33
2017-07-08T12:51:35.705Z,7.10
2017-07-08T12:54:02.211Z,7.63
2017-07-08T12:56:28.718Z,7.50
2017-07-08T12:58:55.983Z,6.97
2017-07-08T13:01:22.526Z,9.10
2017-07-08T13:03:49.778Z,7.47
2017-07-08T13:06:17.103Z,6.90
2017-07-08T13:08:43.554Z,7.53
2017-07-08T13:11:10.078Z,7.30
2017-07-08T13:13:36.579Z,7.03
2017-07-08T13:16:03.071Z,8.50
2017-07-08T13:18:29.533Z,6.80
2017-07-08T13:20:56.023Z,8.23
2017-07-08T13:23:23.279Z,7.87
2017-07-08T13:25:49.812Z,6.97
2017-07-08T13:28:16.310Z,8.17
2017-07-08T13:30:42.823Z,7.87
2017-07-08T13:33:09.418Z,8.20
2017-07-08T13:35:35.976Z,8.90
2017-07-08T13:38:02.461Z,8.43
2017-07-08T13:40:28.971Z,7.40
2017-07-08T13:42:55.454Z,8.60
2017-07-08T13:45:21.963Z,8.40
2017-07-08T13:47:49.222Z,8.23
2017-07-08T13:50:15.730Z,8.13
2017-07-08T13:52:42.303Z,7.60
2017-07-08T13:55:08.707Z,8.70
2017-07-08T13:57:35.217Z,9.50
2017-07-08T14:00:01.730Z,9.77
2017-07-08T14:02:28.237Z,10.37
2017-07-08T14:04:54.726Z,9.67
2017-07-08T14:07:22.010Z,9.97
2017-07-08T14:09:48.590Z,10.17
2017-07-08T14:12:15.819Z,10.43
2017-07-08T14:14:42.317Z,10.27
2017-07-08T14:17:08.835Z,11.67
2017-07-08T14:19:35.310Z,12.27
2017-07-08T14:22:02.588Z,11.33
2017-07-08T14:24:29.821Z,10.80
2017-07-08T14:26:56.339Z,12.40
2017-07-08T14:29:22.853Z,13.50
2017-07-08T14:31:49.362Z,12.30
2017-07-08T14:34:15.897Z,12.73
2017-07-08T14:36:42.433Z,14.70
2017-07-08T14:39:09.118Z,13.10
2017-07-08T14:41:35.640Z,13.00
2017-07-08T14:44:02.230Z,13.77
2017-07-08T14:46:28.913Z,14.87
2017-07-08T14:48:55.430Z,14.83
2017-07-08T14:51:21.965Z,13.40
2017-07-08T14:53:48.444Z,13.17
2017-07-08T14:56:15.001Z,13.80
2017-07-08T14:58:41.504Z,14.83
2017-07-08T15:01:08.047Z,13.67
2017-07-08T15:03:34.586Z,14.20
2017-07-08T15:06:01.873Z,15.97
2017-07-08T15:08:28.415Z,13.90
2017-07-08T15:10:54.905Z,11.90
2017-07-08T15:13:21.515Z,11.17
2017-07-08T15:15:48.046Z,12.30
2017-07-08T15:18:15.196Z,10.90
2017-07-08T15:20:42.447Z,12.00
2017-07-08T15:23:08.933Z,13.27
2017-07-08T15:25:35.454Z,13.60
2017-07-08T15:28:02.010Z,13.67
2017-07-08T15:30:28.591Z,11.97
2017-07-08T15:32:55.093Z,12.60
2017-07-08T15:35:21.706Z,14.00
2017-07-08T15:37:48.259Z,12.70
2017-07-08T15:40:14.827Z,12.17
2017-07-08T15:42:41.317Z,14.07
2017-07-08T15:45:07.805Z,11.73
2017-07-08T15:47:35.037Z,11.73
2017-07-08T15:50:01.600Z,11.50
2017-07-08T15:52:28.133Z,11.73
2017-07-08T15:54:55.158Z,11.93
2017-07-08T15:57:22.415Z,9.37
2017-07-08T15:59:48.918Z,10.07
2017-07-08T16:02:15.506Z,10.23
2017-07-08T16:04:42.013Z,10.47
2017-07-08T16:07:09.275Z,10.77
2017-07-08T16:09:35.804Z,10.33
2017-07-08T16:12:02.335Z,10.33
2017-07-08T16:14:29.583Z,10.27
2017-07-08T16:16:56.059Z,11.07
2017-07-08T16:19:22.622Z,10.23
2017-07-08T16:21:49.128Z,13.07
2017-07-08T16:24:15.630Z,14.23
2017-07-08T16:26:42.130Z,11.80
2017-07-08T16:29:08.623Z,11.53
2017-07-08T16:31:35.099Z,11.53
2017-07-08T16:34:01.634Z,10.83
2017-07-08T16:36:28.143Z,12.07
2017-07-08T16:38:54.634Z,10.73
2017-07-08T16:41:21.142Z,10.60
2017-07-08T16:43:48.414Z,9.60
2017-07-08T16:46:14.906Z,9.53
2017-07-08T16:48:41.453Z,8.87
2017-07-08T16:51:08.053Z,9.50
2017-07-08T16:53:34.552Z,9.07
2017-07-08T16:56:01.055Z,8.70
2017-07-08T16:58:27.571Z,9.47
2017-07-08T17:00:54.071Z,9.40
2017-07-08T17:03:20.618Z,9.10
2017-07-08T17:05:47.163Z,8.63
2017-07-08T17:08:13.679Z,9.33
2017-07-08T17:10:40.238Z,10.40
2017-07-08T17:13:06.804Z,9.40
2017-07-08T17:15:33.314Z,10.43
2017-07-08T17:17:59.828Z,9.57
2017-07-08T17:20:26.336Z,8.83
2017-07-08T17:22:52.917Z,8.80
2017-07-08T17:25:19.535Z,9.80
2017-07-08T17:27:46.045Z,9.20
2017-07-08T17:30:12.664Z,10.73
2017-07-08T17:32:39.893Z,9.40
2017-07-08T17:35:06.398Z,10.83
2017-07-08T17:37:32.900Z,9.03
2017-07-08T17:39:59.566Z,8.93
2017-07-08T17:42:26.303Z,7.60
2017-07-08T17:44:53.655Z,9.37
2017-07-08T17:47:20.247Z,11.67
2017-07-08T17:49:46.886Z,8.80
2017-07-08T17:52:13.998Z,9.20
2017-07-08T17:54:41.208Z,8.90
2017-07-08T17:57:08.533Z,8.37
2017-07-08T17:59:35.097Z,8.80
2017-07-08T18:02:01.686Z,8.90
2017-07-08T18:04:28.984Z,9.77
2017-07-08T18:06:55.497Z,9.50
2017-07-08T18:09:22.010Z,8.60
2017-07-08T18:11:48.559Z,8.80
2017-07-08T18:14:15.063Z,9.17
2017-07-08T18:16:41.574Z,7.27
2017-07-08T18:19:08.089Z,8.67
2017-07-08T18:21:34.696Z,7.20
2017-07-08T18:24:01.959Z,7.97
2017-07-08T18:26:28.530Z,8.23
2017-07-08T18:28:55.110Z,8.27
2017-07-08T18:31:21.591Z,9.23
2017-07-08T18:33:48.126Z,9.97
2017-07-08T18:36:14.745Z,9.60
2017-07-08T18:38:41.302Z,8.30
2017-07-08T18:41:07.823Z,7.43
2017-07-08T18:43:34.322Z,8.60
2017-07-08T18:46:00.817Z,8.47
2017-07-08T18:48:27.326Z,8.80
2017-07-08T18:50:53.774Z,10.33
2017-07-08T18:53:20.272Z,8.03
2017-07-08T18:55:46.785Z,8.80
2017-07-08T18:58:13.296Z,9.10
2017-07-08T19:00:40.551Z,9.20
2017-07-08T19:03:07.090Z,10.07
2017-07-08T19:05:34.351Z,10.60
2017-07-08T19:08:01.587Z,11.07
2017-07-08T19:10:29.910Z,9.80
2017-07-08T19:12:56.431Z,10.23
2017-07-08T19:15:22.996Z,10.77
2017-07-08T19:17:49.508Z,9.37
2017-07-08T19:20:16.066Z,9.90
2017-07-08T19:22:42.553Z,10.67
2017-07-08T19:25:09.831Z,9.30
2017-07-08T19:27:36.312Z,10.50
2017-07-08T19:30:02.893Z,10.13
2017-07-08T19:32:29.425Z,9.93
2017-07-08T19:34:56.206Z,12.67
2017-07-08T19:37:22.811Z,9.90
2017-07-08T19:39:49.365Z,9.47
2017-07-08T19:42:15.903Z,9.77
2017-07-08T19:44:42.516Z,10.20
2017-07-08T19:47:09.117Z,10.30
2017-07-08T19:49:35.699Z,9.63
2017-07-08T19:52:02.246Z,9.57
2017-07-08T19:54:28.907Z,9.50
2017-07-08T19:56:56.181Z,11.03
2017-07-08T19:59:22.715Z,10.90
2017-07-08T20:01:49.243Z,11.50
2017-07-08T20:04:15.771Z,11.53
2017-07-08T20:06:43.039Z,11.93
2017-07-08T20:09:09.531Z,11.77
2017-07-08T20:11:36.127Z,12.63
2017-07-08T20:14:02.693Z,11.90
2017-07-08T20:16:29.233Z,12.20
2017-07-08T20:18:55.794Z,12.30
2017-07-08T20:21:22.364Z,12.57
2017-07-08T20:23:48.911Z,12.10
2017-07-08T20:26:15.432Z,12.90
2017-07-08T20:28:42.112Z,13.10
2017-07-08T20:31:08.847Z,13.60
2017-07-08T20:33:35.431Z,13.90
2017-07-08T20:36:01.965Z,15.37
2017-07-08T20:38:28.495Z,14.90
2017-07-08T20:40:55.137Z,17.30
2017-07-08T20:43:21.632Z,17.53
2017-07-08T20:45:48.154Z,17.50
2017-07-08T20:48:14.776Z,18.50
2017-07-08T20:50:41.391Z,18.60
2017-07-08T20:53:08.019Z,18.30
2017-07-08T20:55:35.711Z,17.80
2017-07-08T20:58:02.321Z,18.03
2017-07-08T21:00:28.867Z,18.13
2017-07-08T21:02:55.362Z,18.30
2017-07-08T21:05:21.887Z,18.97
2017-07-08T21:07:49.126Z,18.57
2017-07-08T21:10:16.479Z,18.83
2017-07-08T21:12:43.084Z,18.37
2017-07-08T21:15:10.390Z,18.00
2017-07-08T21:17:36.873Z,19.10
2017-07-08T21:20:03.361Z,18.90
2017-07-08T21:22:29.842Z,18.27
2017-07-08T21:24:56.407Z,18.47
2017-07-08T21:27:22.940Z,18.60
2017-07-08T21:29:49.469Z,19.90
2017-07-08T21:32:16.523Z,19.07
2017-07-08T21:34:43.882Z,19.40
2017-07-08T21:37:11.117Z,20.03
2017-07-08T21:39:37.652Z,20.40
2017-07-08T21:42:04.888Z,19.67
2017-07-08T21:44:31.377Z,20.73
2017-07-08T21:46:57.880Z,19.57
2017-07-08T21:49:24.362Z,20.93
2017-07-08T21:51:50.854Z,19.87
2017-07-08T21:54:17.166Z,19.83
2017-07-08T21:56:43.455Z,18.33
2017-07-08T21:59:09.722Z,18.37
2017-07-08T22:01:36.122Z,18.03
2017-07-08T22:04:02.395Z,17.60
2017-07-08T22:06:28.689Z,18.40
2017-07-08T22:08:54.976Z,17.03
2017-07-08T22:11:21.263Z,18.00
2017-07-08T22:13:47.539Z,18.80
2017-07-08T22:16:13.817Z,17.50
2017-07-08T22:18:40.141Z,17.40
2017-07-08T22:21:06.414Z,16.67
2017-07-08T22:23:32.708Z,16.97
2017-07-08T22:25:59.056Z,16.07
2017-07-08T22:28:25.329Z,17.77
2017-07-08T22:30:51.712Z,17.33
2017-07-08T22:33:18.027Z,17.50
2017-07-08T22:35:45.399Z,19.93
2017-07-08T22:38:11.717Z,20.33
2017-07-08T22:40:38.041Z,18.73
2017-07-08T22:43:04.338Z,19.73
2017-07-08T22:45:30.609Z,19.27
2017-07-08T22:47:57.647Z,18.67
2017-07-08T22:50:23.922Z,19.10
2017-07-08T22:52:50.191Z,18.03
2017-07-08T22:55:16.462Z,17.97
2017-07-08T22:57:42.734Z,17.10
2017-07-08T23:00:09.030Z,17.03
2017-07-08T23:02:35.428Z,16.80
2017-07-08T23:05:02.464Z,17.20
2017-07-08T23:07:28.779Z,16.73
2017-07-08T23:09:55.075Z,15.70
2017-07-08T23:12:21.478Z,18.90
2017-07-08T23:14:48.483Z,16.60
2017-07-08T23:17:14.796Z,17.13
2017-07-08T23:19:41.080Z,17.80
2017-07-08T23:22:07.342Z,16.67
2017-07-08T23:24:33.718Z,16.93
2017-07-08T23:26:59.987Z,18.00
2017-07-08T23:29:26.273Z,16.93
2017-07-08T23:31:52.536Z,17.40
2017-07-08T23:34:18.818Z,16.60
2017-07-08T23:36:45.152Z,16.73
2017-07-08T23:39:11.435Z,16.47
2017-07-08T23:41:37.718Z,18.33
2017-07-08T23:44:04.039Z,17.03
2017-07-08T23:46:30.323Z,18.57
2017-07-08T23:48:56.879Z,18.50
2017-07-08T23:51:23.155Z,17.93
2017-07-08T23:53:50.151Z,18.47
2017-07-08T23:56:16.468Z,18.20
2017-07-08T23:58:42.779Z,17.60
